sensor_id;sensor_type;location;lat;lon;timestamp;pressure;altitude;pressure_sealevel;temperature;humidity
49627;BME280;35527;54.616;39.786;2022-07-12T00:00:15;99237.66;;;18.93;100.00
49627;BME280;35527;54.616;39.786;2022-07-12T00:03:20;99231.31;;;18.96;100.00
49627;BME280;35527;54.616;39.786;2022-07-12T00:06:23;99236.06;;;19.02;100.00
49627;BME280;35527;54.616;39.786;2022-07-12T00:09:27;99235.53;;;19.08;100.00
49627;BME280;35527;54.616;39.786;2022-07-12T00:12:33;99224.22;;;19.07;100.00
49627;BME280;35527;54.616;39.786;2022-07-12T00:15:36;99230.03;;;19.11;100.00
49627;BME280;35527;54.616;39.786;2022-07-12T00:18:39;99211.28;;;19.16;100.00
49627;BME280;35527;54.616;39.786;2022-07-12T00:21:45;99205.25;;;19.25;100.00
49627;BME280;35527;54.616;39.786;2022-07-12T00:24:49;99213.59;;;19.40;100.00
49627;BME280;35527;54.616;39.786;2022-07-12T00:27:51;99193.31;;;19.42;100.00
49627;BME280;35527;54.616;39.786;2022-07-12T00:30:54;99190.31;;;19.46;100.00
49627;BME280;35527;54.616;39.786;2022-07-12T00:33:58;99190.72;;;19.51;100.00
49627;BME280;35527;54.616;39.786;2022-07-12T00:37:03;99212.59;;;19.52;100.00
49627;BME280;35527;54.616;39.786;2022-07-12T00:40:06;99205.66;;;19.51;100.00
49627;BME280;35527;54.616;39.786;2022-07-12T00:43:11;99189.78;;;19.52;100.00
49627;BME280;35527;54.616;39.786;2022-07-12T00:46:21;99178.56;;;19.50;100.00
49627;BME280;35527;54.616;39.786;2022-07-12T00:49:54;99181.59;;;19.46;100.00
49627;BME280;35527;54.616;39.786;2022-07-12T00:53:00;99188.63;;;19.45;100.00
49627;BME280;35527;54.616;39.786;2022-07-12T00:56:02;99180.19;;;19.42;100.00
49627;BME280;35527;54.616;39.786;2022-07-12T00:59:07;99188.06;;;19.42;100.00
49627;BME280;35527;54.616;39.786;2022-07-12T01:02:12;99192.63;;;19.40;100.00
49627;BME280;35527;54.616;39.786;2022-07-12T01:05:16;99182.72;;;19.43;100.00
49627;BME280;35527;54.616;39.786;2022-07-12T01:08:18;99203.19;;;19.49;100.00
49627;BME280;35527;54.616;39.786;2022-07-12T01:11:21;99224.44;;;19.46;100.00
49627;BME280;35527;54.616;39.786;2022-07-12T01:14:30;99198.59;;;19.51;100.00
49627;BME280;35527;54.616;39.786;2022-07-12T01:17:32;99232.22;;;19.57;100.00
49627;BME280;35527;54.616;39.786;2022-07-12T01:20:36;99231.97;;;19.61;100.00
49627;BME280;35527;54.616;39.786;2022-07-12T01:23:41;99197.94;;;19.59;100.00
49627;BME280;35527;54.616;39.786;2022-07-12T01:26:50;99190.50;;;19.64;100.00
49627;BME280;35527;54.616;39.786;2022-07-12T01:29:54;99232.28;;;19.67;100.00
49627;BME280;35527;54.616;39.786;2022-07-12T01:32:57;99217.81;;;19.73;100.00
49627;BME280;35527;54.616;39.786;2022-07-12T01:36:01;99201.38;;;19.80;100.00
49627;BME280;35527;54.616;39.786;2022-07-12T01:39:06;99213.16;;;19.86;100.00
49627;BME280;35527;54.616;39.786;2022-07-12T01:42:09;99217.44;;;19.97;100.00
49627;BME280;35527;54.616;39.786;2022-07-12T01:45:13;99219.81;;;20.00;100.00
49627;BME280;35527;54.616;39.786;2022-07-12T01:48:16;99234.19;;;20.06;100.00
49627;BME280;35527;54.616;39.786;2022-07-12T01:51:24;99210.28;;;20.09;100.00
49627;BME280;35527;54.616;39.786;2022-07-12T01:54:27;99189.00;;;20.12;100.00
49627;BME280;35527;54.616;39.786;2022-07-12T01:57:32;99185.00;;;20.17;100.00
49627;BME280;35527;54.616;39.786;2022-07-12T02:00:36;99183.75;;;20.21;100.00
49627;BME280;35527;54.616;39.786;2022-07-12T02:03:41;99172.28;;;20.22;100.00
49627;BME280;35527;54.616;39.786;2022-07-12T02:06:44;99159.16;;;20.32;100.00
49627;BME280;35527;54.616;39.786;2022-07-12T02:09:47;99158.06;;;20.35;100.00
49627;BME280;35527;54.616;39.786;2022-07-12T02:12:51;99158.31;;;20.32;100.00
49627;BME280;35527;54.616;39.786;2022-07-12T02:15:54;99160.94;;;20.41;100.00
49627;BME280;35527;54.616;39.786;2022-07-12T02:18:58;99153.19;;;20.40;100.00
49627;BME280;35527;54.616;39.786;2022-07-12T02:22:02;99162.31;;;20.36;100.00
49627;BME280;35527;54.616;39.786;2022-07-12T02:25:04;99142.56;;;20.32;100.00
49627;BME280;35527;54.616;39.786;2022-07-12T02:28:09;99152.91;;;20.33;100.00
49627;BME280;35527;54.616;39.786;2022-07-12T02:31:11;99159.44;;;20.29;100.00
49627;BME280;35527;54.616;39.786;2022-07-12T02:34:14;99157.63;;;20.30;100.00
49627;BME280;35527;54.616;39.786;2022-07-12T02:37:17;99166.47;;;20.38;100.00
49627;BME280;35527;54.616;39.786;2022-07-12T02:40:24;99153.06;;;20.41;100.00
49627;BME280;35527;54.616;39.786;2022-07-12T02:44:01;99171.72;;;20.48;100.00
49627;BME280;35527;54.616;39.786;2022-07-12T02:47:07;99161.53;;;20.55;100.00
49627;BME280;35527;54.616;39.786;2022-07-12T02:50:09;99147.00;;;20.60;100.00
49627;BME280;35527;54.616;39.786;2022-07-12T02:53:18;99150.00;;;20.65;100.00
49627;BME280;35527;54.616;39.786;2022-07-12T02:56:21;99146.00;;;20.71;100.00
49627;BME280;35527;54.616;39.786;2022-07-12T02:59:23;99138.81;;;20.73;100.00
49627;BME280;35527;54.616;39.786;2022-07-12T03:02:28;99150.00;;;20.75;100.00
49627;BME280;35527;54.616;39.786;2022-07-12T03:05:33;99168.25;;;20.77;100.00
49627;BME280;35527;54.616;39.786;2022-07-12T03:08:37;99159.56;;;20.76;100.00
49627;BME280;35527;54.616;39.786;2022-07-12T03:11:40;99158.84;;;20.74;100.00
49627;BME280;35527;54.616;39.786;2022-07-12T03:14:44;99152.38;;;20.59;100.00
49627;BME280;35527;54.616;39.786;2022-07-12T03:17:51;99153.06;;;20.41;100.00
49627;BME280;35527;54.616;39.786;2022-07-12T03:20:53;99164.13;;;20.35;100.00
49627;BME280;35527;54.616;39.786;2022-07-12T03:23:56;99158.88;;;20.35;100.00
49627;BME280;35527;54.616;39.786;2022-07-12T03:26:58;99159.97;;;20.33;100.00
49627;BME280;35527;54.616;39.786;2022-07-12T03:30:06;99123.16;;;20.23;100.00
49627;BME280;35527;54.616;39.786;2022-07-12T03:33:09;99122.47;;;20.31;100.00
49627;BME280;35527;54.616;39.786;2022-07-12T03:36:12;99140.88;;;20.31;100.00
49627;BME280;35527;54.616;39.786;2022-07-12T03:39:15;99103.25;;;20.30;100.00
49627;BME280;35527;54.616;39.786;2022-07-12T03:42:19;99135.06;;;20.37;100.00
49627;BME280;35527;54.616;39.786;2022-07-12T03:45:23;99119.72;;;20.42;100.00
49627;BME280;35527;54.616;39.786;2022-07-12T03:48:29;99147.66;;;20.43;100.00
49627;BME280;35527;54.616;39.786;2022-07-12T03:51:32;99154.03;;;20.50;100.00
49627;BME280;35527;54.616;39.786;2022-07-12T03:54:40;99134.81;;;20.59;100.00
49627;BME280;35527;54.616;39.786;2022-07-12T03:57:48;99130.50;;;20.68;100.00
49627;BME280;35527;54.616;39.786;2022-07-12T04:00:50;99144.31;;;20.89;100.00
49627;BME280;35527;54.616;39.786;2022-07-12T04:03:54;99142.94;;;21.23;100.00
49627;BME280;35527;54.616;39.786;2022-07-12T04:07:02;99121.25;;;21.48;100.00
49627;BME280;35527;54.616;39.786;2022-07-12T04:10:05;99122.56;;;21.25;100.00
49627;BME280;35527;54.616;39.786;2022-07-12T04:13:09;99146.63;;;21.02;100.00
49627;BME280;35527;54.616;39.786;2022-07-12T04:16:13;99151.75;;;20.94;100.00
49627;BME280;35527;54.616;39.786;2022-07-12T04:19:18;99176.00;;;20.98;100.00
49627;BME280;35527;54.616;39.786;2022-07-12T04:22:20;99147.44;;;21.03;100.00
49627;BME280;35527;54.616;39.786;2022-07-12T04:25:23;99130.94;;;21.10;100.00
49627;BME280;35527;54.616;39.786;2022-07-12T04:28:27;99147.84;;;21.18;100.00
49627;BME280;35527;54.616;39.786;2022-07-12T04:31:31;99156.94;;;21.23;100.00
49627;BME280;35527;54.616;39.786;2022-07-12T04:34:35;99151.47;;;21.34;100.00
49627;BME280;35527;54.616;39.786;2022-07-12T04:37:39;99135.06;;;22.23;100.00
49627;BME280;35527;54.616;39.786;2022-07-12T04:40:43;99155.56;;;25.09;78.80
49627;BME280;35527;54.616;39.786;2022-07-12T04:43:49;99177.38;;;26.60;67.19
49627;BME280;35527;54.616;39.786;2022-07-12T04:46:53;99176.59;;;27.27;60.60
49627;BME280;35527;54.616;39.786;2022-07-12T04:50:02;99191.63;;;25.26;70.45
49627;BME280;35527;54.616;39.786;2022-07-12T04:53:05;99180.22;;;24.27;79.80
49627;BME280;35527;54.616;39.786;2022-07-12T04:56:10;99172.78;;;25.21;75.90
49627;BME280;35527;54.616;39.786;2022-07-12T04:59:15;99179.25;;;25.02;73.31
49627;BME280;35527;54.616;39.786;2022-07-12T05:02:18;99193.69;;;23.92;82.00
49627;BME280;35527;54.616;39.786;2022-07-12T05:05:22;99183.94;;;23.84;85.15
49627;BME280;35527;54.616;39.786;2022-07-12T05:08:26;99210.09;;;23.95;82.88
49627;BME280;35527;54.616;39.786;2022-07-12T05:11:29;99207.22;;;24.88;78.42
49627;BME280;35527;54.616;39.786;2022-07-12T05:14:32;99166.69;;;26.68;62.76
49627;BME280;35527;54.616;39.786;2022-07-12T05:17:35;99200.81;;;25.55;70.62
49627;BME280;35527;54.616;39.786;2022-07-12T05:20:42;99210.34;;;25.33;72.01
49627;BME280;35527;54.616;39.786;2022-07-12T05:23:50;99198.88;;;25.40;70.96
49627;BME280;35527;54.616;39.786;2022-07-12T05:26:52;99189.16;;;25.08;74.70
49627;BME280;35527;54.616;39.786;2022-07-12T05:29:55;99189.03;;;24.44;79.86
49627;BME280;35527;54.616;39.786;2022-07-12T05:33:01;99211.03;;;24.45;81.78
49627;BME280;35527;54.616;39.786;2022-07-12T05:36:05;99205.03;;;24.18;84.08
49627;BME280;35527;54.616;39.786;2022-07-12T05:39:09;99223.28;;;24.03;85.00
49627;BME280;35527;54.616;39.786;2022-07-12T05:42:14;99224.00;;;24.14;85.80
49627;BME280;35527;54.616;39.786;2022-07-12T05:45:18;99226.56;;;23.89;86.93
49627;BME280;35527;54.616;39.786;2022-07-12T05:48:22;99226.53;;;23.55;88.93
49627;BME280;35527;54.616;39.786;2022-07-12T05:51:26;99236.19;;;23.64;88.22
49627;BME280;35527;54.616;39.786;2022-07-12T05:54:48;99252.78;;;24.25;85.33
49627;BME280;35527;54.616;39.786;2022-07-12T05:57:52;99252.22;;;24.80;80.23
49627;BME280;35527;54.616;39.786;2022-07-12T06:00:58;99250.81;;;25.58;75.44
49627;BME280;35527;54.616;39.786;2022-07-12T06:04:01;99247.41;;;26.28;71.00
49627;BME280;35527;54.616;39.786;2022-07-12T06:07:04;99247.94;;;27.15;64.32
49627;BME280;35527;54.616;39.786;2022-07-12T06:10:08;99265.03;;;27.36;60.48
49627;BME280;35527;54.616;39.786;2022-07-12T06:13:11;99255.25;;;27.13;62.21
49627;BME280;35527;54.616;39.786;2022-07-12T06:16:14;99253.91;;;26.94;62.62
49627;BME280;35527;54.616;39.786;2022-07-12T06:19:16;99282.44;;;26.46;64.35
49627;BME280;35527;54.616;39.786;2022-07-12T06:22:21;99277.97;;;25.68;69.96
49627;BME280;35527;54.616;39.786;2022-07-12T06:25:24;99270.28;;;25.26;75.23
49627;BME280;35527;54.616;39.786;2022-07-12T06:28:45;99287.97;;;25.09;75.58
49627;BME280;35527;54.616;39.786;2022-07-12T06:31:49;99302.50;;;24.72;77.97
49627;BME280;35527;54.616;39.786;2022-07-12T06:34:53;99311.44;;;24.20;77.30
49627;BME280;35527;54.616;39.786;2022-07-12T06:37:55;99297.13;;;23.97;78.74
49627;BME280;35527;54.616;39.786;2022-07-12T06:40:58;99304.84;;;23.82;81.63
49627;BME280;35527;54.616;39.786;2022-07-12T06:44:01;99302.69;;;23.59;85.90
49627;BME280;35527;54.616;39.786;2022-07-12T06:47:06;99312.81;;;23.64;87.79
49627;BME280;35527;54.616;39.786;2022-07-12T06:50:09;99304.88;;;23.90;87.49
49627;BME280;35527;54.616;39.786;2022-07-12T06:53:12;99328.88;;;25.14;81.85
49627;BME280;35527;54.616;39.786;2022-07-12T06:56:14;99319.44;;;26.48;72.77
49627;BME280;35527;54.616;39.786;2022-07-12T06:59:20;99324.94;;;27.38;64.52
49627;BME280;35527;54.616;39.786;2022-07-12T07:02:24;99317.78;;;26.16;71.88
49627;BME280;35527;54.616;39.786;2022-07-12T07:05:27;99321.94;;;25.22;80.70
49627;BME280;35527;54.616;39.786;2022-07-12T07:08:29;99346.88;;;25.03;84.19
49627;BME280;35527;54.616;39.786;2022-07-12T07:11:36;99333.63;;;24.94;84.69
49627;BME280;35527;54.616;39.786;2022-07-12T07:14:40;99336.94;;;25.87;81.70
49627;BME280;35527;54.616;39.786;2022-07-12T07:17:42;99334.72;;;27.61;68.72
49627;BME280;35527;54.616;39.786;2022-07-12T07:20:46;99340.59;;;29.74;58.43
49627;BME280;35527;54.616;39.786;2022-07-12T07:23:52;99350.81;;;31.28;50.64
49627;BME280;35527;54.616;39.786;2022-07-12T07:26:55;99342.78;;;29.99;52.80
49627;BME280;35527;54.616;39.786;2022-07-12T07:30:01;99350.06;;;28.33;59.95
49627;BME280;35527;54.616;39.786;2022-07-12T07:33:24;99352.16;;;28.52;61.88
49627;BME280;35527;54.616;39.786;2022-07-12T07:36:29;99356.50;;;28.75;60.06
49627;BME280;35527;54.616;39.786;2022-07-12T07:39:59;99350.44;;;28.15;62.61
49627;BME280;35527;54.616;39.786;2022-07-12T07:43:02;99359.03;;;27.35;67.04
49627;BME280;35527;54.616;39.786;2022-07-12T07:46:04;99362.44;;;28.26;63.63
49627;BME280;35527;54.616;39.786;2022-07-12T07:49:08;99373.47;;;29.53;56.34
49627;BME280;35527;54.616;39.786;2022-07-12T07:52:11;99364.25;;;30.67;52.18
49627;BME280;35527;54.616;39.786;2022-07-12T07:55:16;99365.81;;;31.23;50.28
49627;BME280;35527;54.616;39.786;2022-07-12T07:58:18;99360.91;;;31.46;49.26
49627;BME280;35527;54.616;39.786;2022-07-12T08:01:26;99374.88;;;31.61;48.13
49627;BME280;35527;54.616;39.786;2022-07-12T08:04:47;99375.91;;;31.94;44.36
49627;BME280;35527;54.616;39.786;2022-07-12T08:07:50;99381.44;;;31.26;45.98
49627;BME280;35527;54.616;39.786;2022-07-12T08:10:55;99381.91;;;30.20;48.79
49627;BME280;35527;54.616;39.786;2022-07-12T08:14:01;99379.53;;;30.86;47.60
49627;BME280;35527;54.616;39.786;2022-07-12T08:17:04;99368.16;;;30.71;46.19
49627;BME280;35527;54.616;39.786;2022-07-12T08:20:06;99381.63;;;29.52;48.68
49627;BME280;35527;54.616;39.786;2022-07-12T08:23:24;99382.66;;;28.20;52.73
49627;BME280;35527;54.616;39.786;2022-07-12T08:26:59;99391.66;;;28.85;52.80
49627;BME280;35527;54.616;39.786;2022-07-12T08:30:02;99385.22;;;30.70;45.87
49627;BME280;35527;54.616;39.786;2022-07-12T08:33:05;99401.81;;;31.33;42.75
49627;BME280;35527;54.616;39.786;2022-07-12T08:36:07;99400.19;;;31.52;42.50
49627;BME280;35527;54.616;39.786;2022-07-12T08:39:13;99404.31;;;31.68;41.02
49627;BME280;35527;54.616;39.786;2022-07-12T08:42:15;99412.53;;;31.73;41.70
49627;BME280;35527;54.616;39.786;2022-07-12T08:45:19;99409.63;;;32.15;41.20
49627;BME280;35527;54.616;39.786;2022-07-12T08:48:21;99393.69;;;32.33;40.41
49627;BME280;35527;54.616;39.786;2022-07-12T08:51:28;99405.44;;;32.45;39.44
49627;BME280;35527;54.616;39.786;2022-07-12T08:54:38;99429.09;;;30.82;41.97
49627;BME280;35527;54.616;39.786;2022-07-12T08:57:41;99428.75;;;30.64;41.72
49627;BME280;35527;54.616;39.786;2022-07-12T09:00:48;99419.06;;;31.24;41.82
49627;BME280;35527;54.616;39.786;2022-07-12T09:04:31;99417.25;;;31.31;41.54
49627;BME280;35527;54.616;39.786;2022-07-12T09:07:28;99419.81;;;30.02;43.62
49627;BME280;35527;54.616;39.786;2022-07-12T09:10:32;99448.13;;;30.72;41.66
49627;BME280;35527;54.616;39.786;2022-07-12T09:13:46;99456.94;;;30.73;41.36
49627;BME280;35527;54.616;39.786;2022-07-12T09:17:06;99446.78;;;30.48;41.26
49627;BME280;35527;54.616;39.786;2022-07-12T09:20:12;99465.66;;;30.82;40.20
49627;BME280;35527;54.616;39.786;2022-07-12T09:23:15;99452.06;;;30.35;41.00
49627;BME280;35527;54.616;39.786;2022-07-12T09:26:17;99441.75;;;30.25;41.63
49627;BME280;35527;54.616;39.786;2022-07-12T09:29:21;99451.13;;;29.65;42.00
49627;BME280;35527;54.616;39.786;2022-07-12T09:32:25;99452.22;;;29.71;43.14
49627;BME280;35527;54.616;39.786;2022-07-12T09:39:10;99461.97;;;29.21;43.97
49627;BME280;35527;54.616;39.786;2022-07-12T09:42:14;99466.56;;;29.98;43.13
49627;BME280;35527;54.616;39.786;2022-07-12T09:45:18;99471.88;;;30.19;42.29
49627;BME280;35527;54.616;39.786;2022-07-12T09:48:20;99517.41;;;30.39;40.30
49627;BME280;35527;54.616;39.786;2022-07-12T09:51:23;99479.22;;;28.59;43.49
49627;BME280;35527;54.616;39.786;2022-07-12T09:54:27;99500.06;;;27.42;45.39
49627;BME280;35527;54.616;39.786;2022-07-12T09:57:33;99480.72;;;27.25;46.87
49627;BME280;35527;54.616;39.786;2022-07-12T10:00:38;99483.69;;;27.99;46.14
49627;BME280;35527;54.616;39.786;2022-07-12T10:03:43;99494.31;;;27.99;46.58
49627;BME280;35527;54.616;39.786;2022-07-12T10:06:48;99481.50;;;28.17;45.63
49627;BME280;35527;54.616;39.786;2022-07-12T10:09:52;99488.56;;;28.40;44.83
49627;BME280;35527;54.616;39.786;2022-07-12T10:12:55;99478.19;;;28.15;44.94
49627;BME280;35527;54.616;39.786;2022-07-12T10:16:00;99498.50;;;28.61;44.59
49627;BME280;35527;54.616;39.786;2022-07-12T10:22:27;99494.88;;;28.98;42.87
49627;BME280;35527;54.616;39.786;2022-07-12T10:25:32;99484.81;;;28.64;43.34
49627;BME280;35527;54.616;39.786;2022-07-12T10:32:02;99512.63;;;27.48;45.25
49627;BME280;35527;54.616;39.786;2022-07-12T10:35:28;99504.00;;;26.75;47.74
49627;BME280;35527;54.616;39.786;2022-07-12T10:38:32;99521.03;;;26.89;47.65
49627;BME280;35527;54.616;39.786;2022-07-12T10:41:34;99522.28;;;27.09;47.61
49627;BME280;35527;54.616;39.786;2022-07-12T10:44:41;99508.25;;;27.78;47.02
49627;BME280;35527;54.616;39.786;2022-07-12T10:47:53;99512.78;;;28.30;45.61
49627;BME280;35527;54.616;39.786;2022-07-12T10:50:56;99501.53;;;28.72;43.27
49627;BME280;35527;54.616;39.786;2022-07-12T10:54:20;99512.78;;;28.53;43.34
49627;BME280;35527;54.616;39.786;2022-07-12T10:57:46;99507.59;;;28.81;43.69
49627;BME280;35527;54.616;39.786;2022-07-12T11:00:51;99519.09;;;28.52;42.58
49627;BME280;35527;54.616;39.786;2022-07-12T11:03:55;99515.16;;;28.48;41.65
49627;BME280;35527;54.616;39.786;2022-07-12T11:07:03;99522.66;;;28.44;41.37
49627;BME280;35527;54.616;39.786;2022-07-12T11:10:11;99529.66;;;28.07;43.28
49627;BME280;35527;54.616;39.786;2022-07-12T11:13:20;99503.75;;;27.78;42.34
49627;BME280;35527;54.616;39.786;2022-07-12T11:16:27;99527.66;;;27.87;42.68
49627;BME280;35527;54.616;39.786;2022-07-12T11:19:33;99528.81;;;28.45;41.59
49627;BME280;35527;54.616;39.786;2022-07-12T11:22:39;99538.66;;;28.21;42.08
49627;BME280;35527;54.616;39.786;2022-07-12T11:25:42;99546.78;;;27.90;42.36
49627;BME280;35527;54.616;39.786;2022-07-12T11:28:48;99536.00;;;27.83;42.11
49627;BME280;35527;54.616;39.786;2022-07-12T11:32:04;99542.28;;;27.91;42.10
49627;BME280;35527;54.616;39.786;2022-07-12T11:35:37;99546.31;;;28.39;42.42
49627;BME280;35527;54.616;39.786;2022-07-12T11:38:41;99552.06;;;28.51;41.16
49627;BME280;35527;54.616;39.786;2022-07-12T11:41:55;99548.47;;;28.44;41.94
49627;BME280;35527;54.616;39.786;2022-07-12T11:45:00;99546.47;;;27.85;42.22
49627;BME280;35527;54.616;39.786;2022-07-12T11:48:05;99566.88;;;27.61;43.04
49627;BME280;35527;54.616;39.786;2022-07-12T11:51:11;99558.84;;;27.70;42.49
49627;BME280;35527;54.616;39.786;2022-07-12T11:54:14;99560.16;;;27.74;43.24
49627;BME280;35527;54.616;39.786;2022-07-12T11:57:19;99554.88;;;27.43;43.72
49627;BME280;35527;54.616;39.786;2022-07-12T12:00:25;99578.75;;;27.51;43.61
49627;BME280;35527;54.616;39.786;2022-07-12T12:03:29;99569.69;;;27.37;43.59
49627;BME280;35527;54.616;39.786;2022-07-12T12:06:35;99584.06;;;27.03;43.72
49627;BME280;35527;54.616;39.786;2022-07-12T12:09:58;99565.00;;;27.00;44.09
49627;BME280;35527;54.616;39.786;2022-07-12T12:13:02;99590.91;;;26.98;44.87
49627;BME280;35527;54.616;39.786;2022-07-12T12:16:05;99593.13;;;26.78;44.91
49627;BME280;35527;54.616;39.786;2022-07-12T12:19:12;99600.59;;;26.49;45.94
49627;BME280;35527;54.616;39.786;2022-07-12T12:22:32;99590.34;;;26.22;45.78
49627;BME280;35527;54.616;39.786;2022-07-12T12:25:36;99588.38;;;26.08;46.80
49627;BME280;35527;54.616;39.786;2022-07-12T12:28:49;99595.16;;;25.94;46.01
49627;BME280;35527;54.616;39.786;2022-07-12T12:31:57;99596.66;;;26.13;45.24
49627;BME280;35527;54.616;39.786;2022-07-12T12:35:08;99584.66;;;25.76;45.84
49627;BME280;35527;54.616;39.786;2022-07-12T12:38:20;99580.63;;;25.47;46.75
49627;BME280;35527;54.616;39.786;2022-07-12T12:41:24;99597.56;;;25.71;47.05
49627;BME280;35527;54.616;39.786;2022-07-12T12:44:28;99587.13;;;25.77;46.76
49627;BME280;35527;54.616;39.786;2022-07-12T12:47:51;99580.72;;;25.88;46.80
49627;BME280;35527;54.616;39.786;2022-07-12T12:54:35;99585.38;;;26.02;45.30
49627;BME280;35527;54.616;39.786;2022-07-12T12:57:39;99586.88;;;26.05;45.87
49627;BME280;35527;54.616;39.786;2022-07-12T13:00:45;99600.78;;;26.15;45.55
49627;BME280;35527;54.616;39.786;2022-07-12T13:04:13;99587.38;;;26.17;44.79
49627;BME280;35527;54.616;39.786;2022-07-12T13:07:17;99584.53;;;26.26;44.80
49627;BME280;35527;54.616;39.786;2022-07-12T13:10:21;99596.63;;;26.37;44.03
49627;BME280;35527;54.616;39.786;2022-07-12T13:13:24;99599.13;;;26.06;45.37
49627;BME280;35527;54.616;39.786;2022-07-12T13:16:28;99586.03;;;25.88;47.08
49627;BME280;35527;54.616;39.786;2022-07-12T13:19:33;99595.00;;;25.87;46.98
49627;BME280;35527;54.616;39.786;2022-07-12T13:22:36;99584.00;;;25.74;47.97
49627;BME280;35527;54.616;39.786;2022-07-12T13:25:42;99612.91;;;25.43;47.99
49627;BME280;35527;54.616;39.786;2022-07-12T13:28:46;99597.63;;;25.02;49.75
49627;BME280;35527;54.616;39.786;2022-07-12T13:31:54;99594.72;;;24.79;51.36
49627;BME280;35527;54.616;39.786;2022-07-12T13:35:00;99593.81;;;24.97;51.69
49627;BME280;35527;54.616;39.786;2022-07-12T13:38:04;99598.41;;;25.21;51.16
49627;BME280;35527;54.616;39.786;2022-07-12T13:41:13;99602.34;;;25.51;50.67
49627;BME280;35527;54.616;39.786;2022-07-12T13:44:18;99590.25;;;25.56;48.92
49627;BME280;35527;54.616;39.786;2022-07-12T13:47:23;99599.72;;;25.75;48.69
49627;BME280;35527;54.616;39.786;2022-07-12T13:50:28;99601.94;;;25.88;47.34
49627;BME280;35527;54.616;39.786;2022-07-12T13:53:36;99600.47;;;25.94;46.53
49627;BME280;35527;54.616;39.786;2022-07-12T13:56:45;99593.94;;;25.80;46.33
49627;BME280;35527;54.616;39.786;2022-07-12T13:59:49;99604.72;;;25.78;45.60
49627;BME280;35527;54.616;39.786;2022-07-12T14:02:54;99616.16;;;25.79;45.30
49627;BME280;35527;54.616;39.786;2022-07-12T14:05:58;99620.44;;;25.80;44.85
49627;BME280;35527;54.616;39.786;2022-07-12T14:09:01;99616.31;;;25.77;44.60
49627;BME280;35527;54.616;39.786;2022-07-12T14:12:03;99610.34;;;25.67;43.50
49627;BME280;35527;54.616;39.786;2022-07-12T14:15:09;99613.16;;;25.74;43.91
49627;BME280;35527;54.616;39.786;2022-07-12T14:18:17;99644.78;;;25.67;44.43
49627;BME280;35527;54.616;39.786;2022-07-12T14:21:20;99622.03;;;25.48;45.22
49627;BME280;35527;54.616;39.786;2022-07-12T14:24:23;99626.97;;;25.43;45.62
49627;BME280;35527;54.616;39.786;2022-07-12T14:27:27;99615.41;;;25.44;45.72
49627;BME280;35527;54.616;39.786;2022-07-12T14:30:33;99622.91;;;25.23;45.71
49627;BME280;35527;54.616;39.786;2022-07-12T14:33:38;99620.00;;;25.34;45.54
49627;BME280;35527;54.616;39.786;2022-07-12T14:36:40;99617.19;;;25.44;45.45
49627;BME280;35527;54.616;39.786;2022-07-12T14:39:43;99614.88;;;25.40;46.09
49627;BME280;35527;54.616;39.786;2022-07-12T14:42:50;99638.06;;;25.47;46.22
49627;BME280;35527;54.616;39.786;2022-07-12T14:45:53;99621.81;;;25.33;46.58
49627;BME280;35527;54.616;39.786;2022-07-12T14:48:55;99637.09;;;25.13;46.84
49627;BME280;35527;54.616;39.786;2022-07-12T14:51:58;99626.91;;;24.92;47.79
49627;BME280;35527;54.616;39.786;2022-07-12T14:55:02;99624.97;;;24.77;48.82
49627;BME280;35527;54.616;39.786;2022-07-12T14:58:09;99628.63;;;24.58;49.08
49627;BME280;35527;54.616;39.786;2022-07-12T15:01:11;99635.59;;;24.59;49.55
49627;BME280;35527;54.616;39.786;2022-07-12T15:04:15;99633.38;;;24.72;49.56
49627;BME280;35527;54.616;39.786;2022-07-12T15:07:19;99639.00;;;25.03;49.46
49627;BME280;35527;54.616;39.786;2022-07-12T15:10:22;99636.34;;;25.21;48.65
49627;BME280;35527;54.616;39.786;2022-07-12T15:13:24;99619.81;;;25.01;49.59
49627;BME280;35527;54.616;39.786;2022-07-12T15:16:29;99627.56;;;24.68;50.95
49627;BME280;35527;54.616;39.786;2022-07-12T15:19:38;99626.91;;;24.31;52.09
49627;BME280;35527;54.616;39.786;2022-07-12T15:22:43;99634.94;;;24.03;53.60
49627;BME280;35527;54.616;39.786;2022-07-12T15:25:46;99636.13;;;23.91;54.72
49627;BME280;35527;54.616;39.786;2022-07-12T15:28:59;99647.31;;;23.85;56.08
49627;BME280;35527;54.616;39.786;2022-07-12T15:32:07;99651.22;;;23.80;56.89
49627;BME280;35527;54.616;39.786;2022-07-12T15:35:12;99656.81;;;23.77;57.27
49627;BME280;35527;54.616;39.786;2022-07-12T15:38:14;99665.50;;;23.88;56.98
49627;BME280;35527;54.616;39.786;2022-07-12T15:41:17;99663.94;;;23.95;57.08
49627;BME280;35527;54.616;39.786;2022-07-12T15:44:25;99660.25;;;24.05;56.50
49627;BME280;35527;54.616;39.786;2022-07-12T15:47:31;99666.13;;;24.17;56.77
49627;BME280;35527;54.616;39.786;2022-07-12T15:50:35;99679.75;;;24.22;56.27
49627;BME280;35527;54.616;39.786;2022-07-12T15:53:38;99665.16;;;24.18;56.42
49627;BME280;35527;54.616;39.786;2022-07-12T15:56:42;99671.28;;;24.19;57.47
49627;BME280;35527;54.616;39.786;2022-07-12T15:59:45;99670.47;;;24.18;56.67
49627;BME280;35527;54.616;39.786;2022-07-12T16:02:49;99669.34;;;24.21;56.27
49627;BME280;35527;54.616;39.786;2022-07-12T16:05:54;99664.63;;;24.15;56.17
49627;BME280;35527;54.616;39.786;2022-07-12T16:09:04;99659.28;;;24.07;54.71
49627;BME280;35527;54.616;39.786;2022-07-12T16:12:10;99667.94;;;23.99;55.06
49627;BME280;35527;54.616;39.786;2022-07-12T16:15:13;99676.72;;;23.99;55.68
49627;BME280;35527;54.616;39.786;2022-07-12T16:18:17;99672.41;;;23.98;56.19
49627;BME280;35527;54.616;39.786;2022-07-12T16:21:23;99671.81;;;24.04;56.00